createdAt,value
2019-04-19T00:01:47.682Z,92.30
2019-04-19T00:04:16.230Z,92.50
2019-04-19T00:06:48.486Z,93.40
2019-04-19T00:09:31.099Z,93.90
2019-04-19T00:12:04.476Z,93.70
2019-04-19T00:14:23.400Z,93.60
2019-04-19T00:16:53.599Z,94.00
2019-04-19T00:19:52.494Z,94.50
2019-04-19T00:24:31.739Z,94.30
2019-04-19T00:27:07.750Z,94.30
2019-04-19T00:34:56.786Z,94.80
2019-04-19T00:37:27.250Z,95.00
2019-04-19T00:40:27.828Z,95.10
2019-04-19T00:45:49.483Z,94.80
2019-04-19T00:48:26.261Z,94.90
2019-04-19T00:50:53.042Z,94.80
2019-04-19T00:53:24.361Z,95.00
2019-04-19T00:55:53.581Z,95.00
2019-04-19T00:58:20.072Z,95.20
2019-04-19T01:00:49.113Z,95.90
2019-04-19T01:03:30.721Z,95.70
2019-04-19T01:06:00.709Z,95.30
2019-04-19T01:08:27.593Z,95.30
2019-04-19T01:11:12.854Z,95.70
2019-04-19T01:13:47.756Z,96.30
2019-04-19T01:16:20.517Z,96.50
2019-04-19T01:18:52.571Z,96.10
2019-04-19T01:21:23.951Z,96.20
2019-04-19T01:23:59.079Z,96.20
2019-04-19T01:26:30.022Z,96.20
2019-04-19T01:29:09.485Z,96.40
2019-04-19T01:31:37.717Z,96.60
2019-04-19T01:34:13.049Z,96.60
2019-04-19T01:36:46.656Z,96.60
2019-04-19T01:39:29.031Z,96.70
2019-04-19T01:42:01.086Z,96.80
2019-04-19T01:44:53.334Z,96.60
2019-04-19T01:47:47.750Z,96.70
2019-04-19T01:53:26.714Z,96.90
2019-04-19T01:55:41.768Z,97.00
2019-04-19T01:58:16.153Z,97.60
2019-04-19T02:03:23.172Z,97.70
2019-04-19T02:05:56.519Z,97.80
2019-04-19T02:08:29.057Z,98.00
2019-04-19T02:11:51.280Z,98.30
2019-04-19T02:14:21.173Z,98.10
2019-04-19T02:27:20.368Z,98.60
2019-04-19T02:29:59.484Z,98.50
2019-04-19T02:32:43.695Z,98.40
2019-04-19T02:35:15.562Z,98.40
2019-04-19T02:37:58.217Z,98.30
2019-04-19T02:40:45.013Z,98.70
2019-04-19T02:43:03.408Z,98.50
2019-04-19T02:45:32.729Z,98.50
2019-04-19T02:48:19.893Z,98.90
2019-04-19T02:51:07.763Z,99.00
2019-04-19T02:53:20.259Z,99.10
2019-04-19T02:55:56.386Z,99.20
2019-04-19T02:58:18.134Z,99.10
2019-04-19T03:01:17.301Z,99.30
2019-04-19T03:03:27.463Z,99.20
2019-04-19T03:05:59.336Z,99.40
2019-04-19T03:08:12.526Z,98.90
2019-04-19T03:10:58.454Z,99.10
2019-04-19T03:13:37.899Z,99.20
2019-04-19T03:16:02.487Z,99.50
2019-04-19T03:18:39.956Z,99.30
2019-04-19T03:21:08.340Z,99.20
2019-04-19T03:23:36.514Z,99.10
2019-04-19T03:26:17.129Z,99.10
2019-04-19T03:28:41.673Z,99.00
2019-04-19T03:31:32.758Z,99.30
2019-04-19T03:36:32.529Z,99.40
2019-04-19T03:38:57.549Z,99.60
2019-04-19T03:44:22.142Z,99.60
2019-04-19T03:54:40.473Z,99.90
2019-04-19T03:57:11.580Z,99.90
2019-04-19T03:59:27.529Z,99.90
2019-04-19T04:02:00.643Z,99.90
2019-04-19T04:04:32.059Z,99.90
2019-04-19T04:07:08.618Z,99.90
2019-04-19T04:09:49.768Z,99.90
2019-04-19T04:12:55.378Z,99.90
2019-04-19T04:15:51.709Z,99.80
2019-04-19T04:18:09.110Z,99.90
2019-04-19T04:20:48.984Z,99.90
2019-04-19T04:26:01.160Z,99.90
2019-04-19T04:28:39.383Z,99.90
2019-04-19T04:31:15.402Z,99.90
2019-04-19T04:33:54.651Z,99.90
2019-04-19T04:36:36.232Z,99.90
2019-04-19T04:38:58.584Z,99.90
2019-04-19T04:41:31.218Z,99.90
2019-04-19T04:44:20.468Z,99.90
2019-04-19T04:47:06.187Z,99.90
2019-04-19T04:49:53.657Z,99.90
2019-04-19T04:52:20.166Z,99.90
2019-04-19T04:54:48.312Z,99.90
2019-04-19T04:57:32.645Z,99.90
2019-04-19T05:00:00.679Z,99.90
2019-04-19T05:02:46.182Z,99.90
2019-04-19T05:05:19.473Z,99.90
2019-04-19T05:07:58.104Z,99.90
2019-04-19T05:10:18.982Z,99.90
2019-04-19T05:13:13.718Z,99.90
2019-04-19T05:15:34.771Z,99.90
2019-04-19T05:18:13.775Z,99.90
2019-04-19T05:20:36.823Z,99.90
2019-04-19T05:23:09.309Z,99.90
2019-04-19T05:25:56.399Z,99.90
2019-04-19T05:28:14.432Z,99.90
2019-04-19T05:30:37.168Z,99.90
2019-04-19T05:33:09.955Z,99.90
2019-04-19T05:38:56.037Z,99.90
2019-04-19T05:41:29.753Z,99.90
2019-04-19T05:44:21.699Z,99.90
2019-04-19T05:46:45.903Z,99.90
2019-04-19T05:49:10.362Z,99.90
2019-04-19T05:51:48.928Z,99.90
2019-04-19T05:54:07.206Z,99.90
2019-04-19T05:56:45.083Z,99.90
2019-04-19T05:59:34.281Z,99.90
2019-04-19T06:02:21.941Z,99.90
2019-04-19T06:05:11.406Z,99.90
2019-04-19T06:10:25.547Z,99.90
2019-04-19T06:13:00.436Z,99.90
2019-04-19T06:15:48.463Z,99.90
2019-04-19T06:18:31.555Z,99.90
2019-04-19T06:21:17.105Z,99.90
2019-04-19T06:23:49.501Z,99.90
2019-04-19T06:26:46.265Z,99.90
2019-04-19T06:28:55.653Z,99.90
2019-04-19T06:31:24.205Z,99.90
2019-04-19T06:33:45.675Z,99.90
2019-04-19T06:36:05.571Z,99.90
2019-04-19T06:38:32.954Z,99.90
2019-04-19T06:41:13.681Z,99.90
2019-04-19T06:48:59.750Z,99.90
2019-04-19T06:51:31.852Z,99.90
2019-04-19T06:54:02.021Z,99.90
2019-04-19T06:56:33.359Z,99.90
2019-04-19T06:59:13.056Z,99.90
2019-04-19T07:01:40.219Z,99.90
2019-04-19T07:04:04.187Z,99.90
2019-04-19T07:06:48.288Z,99.90
2019-04-19T07:09:31.059Z,99.90
2019-04-19T07:12:02.190Z,99.90
2019-04-19T07:14:18.553Z,99.90
2019-04-19T07:17:04.491Z,99.70
2019-04-19T07:19:35.106Z,98.40
2019-04-19T07:22:00.724Z,98.40
2019-04-19T07:24:39.282Z,98.20
2019-04-19T07:27:12.460Z,98.40
2019-04-19T07:29:25.477Z,98.60
2019-04-19T07:31:55.780Z,98.00
2019-04-19T07:34:41.973Z,98.60
2019-04-19T07:37:14.520Z,98.50
2019-04-19T07:39:55.660Z,98.60
2019-04-19T07:51:18.825Z,98.40
2019-04-19T07:53:49.037Z,98.20
2019-04-19T07:56:31.703Z,98.50
2019-04-19T07:59:16.666Z,98.60
2019-04-19T08:09:20.357Z,98.00
2019-04-19T08:11:58.606Z,98.30
2019-04-19T08:17:29.192Z,97.50
2019-04-19T08:29:22.082Z,96.90
2019-04-19T08:31:40.028Z,96.40
2019-04-19T08:34:14.452Z,96.50
2019-04-19T08:36:49.329Z,96.10
2019-04-19T08:39:32.178Z,96.30
2019-04-19T08:42:06.856Z,96.30
2019-04-19T08:47:20.434Z,96.60
2019-04-19T08:50:05.770Z,96.10
2019-04-19T08:52:37.521Z,96.00
2019-04-19T08:55:27.650Z,96.20
2019-04-19T08:57:41.206Z,95.70
2019-04-19T09:00:41.116Z,95.70
2019-04-19T09:02:59.024Z,95.20
2019-04-19T09:05:31.236Z,95.30
2019-04-19T09:08:05.296Z,95.60
2019-04-19T09:10:33.665Z,95.30
2019-04-19T09:13:19.640Z,95.30
2019-04-19T09:15:35.181Z,95.30
2019-04-19T09:20:49.699Z,95.50
2019-04-19T09:23:14.127Z,95.30
2019-04-19T09:26:05.845Z,95.60
2019-04-19T09:29:06.419Z,95.50
2019-04-19T09:31:16.850Z,95.20
2019-04-19T09:33:39.119Z,94.50
2019-04-19T09:36:11.264Z,94.50
2019-04-19T09:38:55.534Z,94.10
2019-04-19T09:41:20.588Z,94.00
2019-04-19T09:43:54.530Z,93.90
2019-04-19T09:46:13.044Z,93.90
2019-04-19T09:49:01.010Z,93.70
2019-04-19T09:51:35.301Z,92.90
2019-04-19T09:54:09.769Z,92.50
2019-04-19T09:56:35.971Z,91.40
2019-04-19T09:59:05.086Z,91.60
2019-04-19T10:01:31.037Z,91.40
2019-04-19T10:03:59.928Z,91.10
2019-04-19T10:06:28.877Z,91.50
2019-04-19T10:09:01.045Z,91.00
2019-04-19T10:11:31.036Z,90.70
2019-04-19T10:14:00.670Z,90.70
2019-04-19T10:16:38.115Z,91.10
2019-04-19T10:19:10.067Z,90.40
2019-04-19T10:22:16.623Z,90.20
2019-04-19T10:24:48.103Z,90.00
2019-04-19T10:30:06.305Z,90.20
2019-04-19T10:32:38.335Z,88.20
2019-04-19T10:35:09.422Z,88.60
2019-04-19T10:37:39.942Z,88.60
2019-04-19T10:40:13.391Z,88.50
2019-04-19T10:43:27.795Z,87.80
2019-04-19T10:46:49.444Z,89.60
2019-04-19T10:49:33.403Z,87.00
2019-04-19T10:52:10.224Z,87.10
2019-04-19T10:55:08.578Z,85.30
2019-04-19T10:57:36.824Z,85.00
2019-04-19T11:02:52.450Z,86.10
2019-04-19T11:05:36.895Z,86.60
2019-04-19T11:10:58.098Z,83.80
2019-04-19T11:13:54.351Z,83.50
2019-04-19T11:16:04.602Z,83.20
2019-04-19T11:18:35.274Z,80.70
2019-04-19T11:21:05.309Z,80.60
2019-04-19T11:23:35.735Z,79.90
2019-04-19T11:28:41.094Z,79.80
2019-04-19T11:31:36.089Z,79.60
2019-04-19T11:34:08.842Z,78.80
2019-04-19T11:36:41.801Z,78.50
2019-04-19T11:39:17.276Z,80.00
2019-04-19T11:41:49.271Z,79.70
2019-04-19T11:44:32.749Z,78.10
2019-04-19T11:49:48.936Z,76.10
2019-04-19T11:52:28.083Z,75.60
2019-04-19T11:55:07.256Z,76.10
2019-04-19T11:57:46.345Z,76.40
2019-04-19T12:00:33.869Z,75.30
2019-04-19T12:03:22.838Z,77.80
2019-04-19T12:06:08.686Z,76.60
2019-04-19T12:09:12.411Z,74.50
2019-04-19T12:11:38.050Z,73.60
2019-04-19T12:16:50.832Z,72.20
2019-04-19T12:19:25.704Z,72.00
2019-04-19T12:21:54.540Z,71.90
2019-04-19T12:24:24.845Z,74.30
2019-04-19T12:26:57.665Z,73.80
2019-04-19T12:44:46.067Z,66.30
2019-04-19T12:47:51.184Z,67.00
2019-04-19T12:54:34.133Z,66.10
2019-04-19T13:01:12.440Z,66.90
2019-04-19T13:07:51.411Z,62.90
2019-04-19T13:10:26.959Z,59.20
2019-04-19T13:13:00.121Z,59.20
2019-04-19T13:15:34.326Z,57.80
2019-04-19T13:18:04.406Z,54.90
2019-04-19T13:20:55.595Z,58.20
2019-04-19T13:23:38.186Z,59.80
2019-04-19T13:26:33.503Z,63.70
2019-04-19T13:34:34.228Z,63.40
2019-04-19T13:37:47.594Z,64.00
2019-04-19T13:40:42.970Z,66.70
2019-04-19T13:43:22.681Z,67.30
2019-04-19T13:45:54.703Z,67.20
2019-04-19T13:48:34.660Z,65.30
2019-04-19T13:51:10.661Z,64.50
2019-04-19T13:56:22.608Z,64.70
2019-04-19T13:59:09.819Z,63.00
2019-04-19T14:01:55.075Z,62.30
2019-04-19T14:04:29.219Z,63.30
2019-04-19T14:07:02.420Z,63.10
2019-04-19T14:09:33.621Z,64.10
2019-04-19T14:12:09.106Z,65.40
2019-04-19T14:17:42.786Z,66.30
2019-04-19T14:20:27.568Z,64.30
2019-04-19T14:23:23.631Z,65.60
2019-04-19T14:26:11.510Z,66.20
2019-04-19T14:28:47.391Z,63.90
2019-04-19T14:31:26.326Z,63.30
2019-04-19T14:33:59.253Z,62.30
2019-04-19T14:39:56.418Z,62.40
2019-04-19T14:56:31.064Z,60.80
2019-04-19T14:59:02.681Z,61.80
2019-04-19T15:01:49.348Z,62.30
2019-04-19T15:04:57.932Z,61.30
2019-04-19T15:07:28.388Z,60.70
2019-04-19T15:09:59.550Z,60.70
2019-04-19T15:12:32.528Z,59.90
2019-04-19T15:15:06.185Z,60.80
2019-04-19T15:17:35.437Z,60.10
2019-04-19T15:20:08.055Z,61.80
2019-04-19T15:22:38.065Z,62.50
2019-04-19T15:25:10.912Z,59.60
2019-04-19T15:27:41.369Z,60.30
2019-04-19T15:30:12.983Z,60.80
2019-04-19T15:32:44.493Z,59.90
2019-04-19T15:35:16.544Z,59.60
2019-04-19T15:37:51.987Z,59.50
2019-04-19T15:40:44.327Z,59.40
2019-04-19T15:43:17.531Z,60.30
2019-04-19T15:45:49.339Z,59.80
2019-04-19T15:48:27.571Z,59.30
2019-04-19T15:50:52.685Z,59.60
2019-04-19T15:53:24.326Z,59.50
2019-04-19T15:55:55.856Z,60.40
2019-04-19T15:58:30.884Z,59.20
2019-04-19T16:06:43.871Z,59.10
2019-04-19T16:10:01.750Z,58.20
2019-04-19T16:15:47.835Z,57.90
2019-04-19T16:18:20.112Z,57.20
2019-04-19T16:21:01.282Z,57.50
2019-04-19T16:23:36.311Z,58.00
2019-04-19T16:31:54.315Z,56.90
2019-04-19T16:34:57.173Z,56.20
2019-04-19T16:38:03.500Z,56.50
2019-04-19T16:40:40.576Z,56.20
2019-04-19T16:43:13.225Z,54.40
2019-04-19T16:45:46.238Z,55.10
2019-04-19T16:48:16.814Z,54.10
2019-04-19T16:50:46.541Z,53.50
2019-04-19T16:53:17.817Z,52.70
2019-04-19T16:55:49.777Z,51.20
2019-04-19T16:58:20.864Z,50.10
2019-04-19T17:00:52.494Z,49.80
2019-04-19T17:03:25.717Z,47.70
2019-04-19T17:06:06.482Z,47.20
2019-04-19T17:13:20.606Z,46.70
2019-04-19T17:16:52.805Z,45.90
2019-04-19T17:20:39.482Z,47.90
2019-04-19T17:23:31.289Z,49.80
2019-04-19T17:49:12.979Z,56.40
2019-04-19T17:52:19.485Z,56.60
2019-04-19T17:55:18.583Z,57.70
2019-04-19T17:58:56.457Z,57.60
2019-04-19T18:01:36.490Z,58.50
2019-04-19T18:04:16.435Z,59.30
2019-04-19T18:13:59.314Z,61.40
2019-04-19T18:16:50.559Z,62.40
2019-04-19T18:19:59.174Z,64.40
2019-04-19T18:23:28.431Z,64.50
2019-04-19T18:26:20.540Z,65.50
2019-04-19T18:36:55.943Z,69.00
2019-04-19T18:39:34.175Z,69.50
2019-04-19T18:42:03.969Z,71.10
2019-04-19T18:44:43.321Z,70.90
2019-04-19T18:47:09.529Z,71.20
2019-04-19T18:49:39.314Z,71.40
2019-04-19T18:52:21.835Z,71.10
2019-04-19T18:55:53.151Z,70.80
2019-04-19T18:58:26.792Z,70.70
2019-04-19T19:01:01.254Z,70.20
2019-04-19T19:09:13.342Z,69.50
2019-04-19T19:11:46.436Z,70.30
2019-04-19T19:14:35.413Z,69.60
2019-04-19T19:17:17.282Z,69.90
2019-04-19T19:22:32.220Z,71.90
2019-04-19T19:25:18.444Z,70.80
2019-04-19T19:36:49.185Z,71.30
2019-04-19T19:39:28.485Z,72.10
2019-04-19T19:45:13.809Z,74.00
2019-04-19T19:51:08.765Z,77.40
2019-04-19T19:53:54.421Z,75.10
2019-04-19T19:57:03.061Z,75.60
2019-04-19T19:59:12.695Z,79.80
2019-04-19T20:01:48.193Z,80.00
2019-04-19T20:04:04.630Z,80.70
2019-04-19T20:06:36.730Z,80.00
2019-04-19T20:09:44.815Z,80.90
2019-04-19T20:12:24.852Z,80.20
2019-04-19T20:17:58.397Z,83.00
2019-04-19T20:20:36.224Z,82.30
2019-04-19T20:23:37.915Z,79.70
2019-04-19T20:26:21.977Z,78.30
2019-04-19T20:31:40.936Z,80.10
2019-04-19T20:34:38.917Z,83.70
2019-04-19T20:37:13.082Z,84.50
2019-04-19T20:39:44.961Z,83.20
2019-04-19T20:42:23.356Z,84.10
2019-04-19T20:44:55.385Z,83.20
2019-04-19T20:47:21.678Z,82.80
2019-04-19T20:49:51.701Z,82.90
2019-04-19T20:52:40.195Z,82.20
2019-04-19T20:58:24.029Z,84.70
2019-04-19T21:00:48.456Z,85.00
2019-04-19T21:03:26.112Z,83.50
2019-04-19T21:05:53.101Z,83.40
2019-04-19T21:08:30.399Z,82.30
2019-04-19T21:16:20.392Z,86.70
2019-04-19T21:19:07.316Z,87.50
2019-04-19T21:24:16.919Z,86.00
2019-04-19T21:26:47.286Z,86.20
2019-04-19T21:29:24.042Z,87.60
2019-04-19T21:31:54.207Z,84.90
2019-04-19T21:34:26.302Z,83.80
2019-04-19T21:36:59.574Z,86.20
2019-04-19T21:39:25.143Z,87.50
2019-04-19T21:41:59.146Z,86.70
2019-04-19T21:44:28.408Z,86.00
2019-04-19T21:47:02.201Z,81.20
2019-04-19T21:49:30.911Z,84.50
2019-04-19T21:52:05.414Z,85.50
2019-04-19T21:54:32.751Z,82.50
2019-04-19T21:57:04.660Z,81.40
2019-04-19T21:59:38.769Z,83.30
2019-04-19T22:02:07.688Z,86.40
2019-04-19T22:04:43.642Z,87.80
2019-04-19T22:07:10.798Z,88.00
2019-04-19T22:09:49.947Z,86.60
2019-04-19T22:12:14.767Z,88.40
2019-04-19T22:14:44.811Z,88.20
2019-04-19T22:17:23.357Z,88.50
2019-04-19T22:19:51.758Z,87.00
2019-04-19T22:22:28.745Z,83.00
2019-04-19T22:24:59.850Z,83.30
2019-04-19T22:27:29.522Z,84.50
2019-04-19T22:35:16.631Z,87.50
2019-04-19T22:37:43.147Z,85.80
2019-04-19T22:40:19.047Z,85.60
2019-04-19T22:42:59.623Z,88.40
2019-04-19T22:45:24.166Z,88.80
2019-04-19T22:47:53.873Z,90.50
2019-04-19T22:50:31.045Z,90.20
2019-04-19T22:53:00.756Z,89.00
2019-04-19T22:55:44.332Z,89.20
2019-04-19T22:58:06.045Z,88.70
2019-04-19T23:00:40.057Z,88.10
2019-04-19T23:03:22.006Z,89.00
2019-04-19T23:05:47.007Z,90.50
2019-04-19T23:08:17.386Z,90.90
2019-04-19T23:10:54.506Z,91.10
2019-04-19T23:13:23.599Z,91.10
2019-04-19T23:15:58.908Z,90.90
2019-04-19T23:18:26.718Z,90.90
2019-04-19T23:21:05.388Z,91.50
2019-04-19T23:23:32.591Z,91.60
2019-04-19T23:26:16.143Z,92.00
2019-04-19T23:28:38.179Z,92.20
2019-04-19T23:31:08.895Z,91.60
2019-04-19T23:33:36.490Z,91.50
2019-04-19T23:36:12.828Z,91.60
2019-04-19T23:38:39.055Z,92.00
2019-04-19T23:41:09.368Z,92.00
2019-04-19T23:43:43.538Z,91.90
2019-04-19T23:46:19.851Z,91.80
2019-04-19T23:48:44.638Z,92.20
2019-04-19T23:51:16.493Z,92.00
2019-04-19T23:53:48.198Z,92.00
2019-04-19T23:56:28.509Z,92.00
2019-04-19T23:58:50.185Z,92.50
